Time;durP1;ratioP1;P1;durP2;ratioP2;P2;SDS_P1;SDS_P2;PMS_P1;PMS_P2;Temp;Humidity;BMP_temperature;BMP_pressure;BME280_temperature;BME280_humidity;BME280_pressure;Samples;Min_cycle;Max_cycle;Signal;HPM_P1;HPM_P2
2022/05/06 00:02:15;;;;;;;22.83;18.57;;;15.00;99.90;;;;;;5073726;28;20490;-68
2022/05/06 00:04:43;;;;;;;22.40;20.10;;;14.90;99.90;;;;;;5074789;28;20169;-70
2022/05/06 00:07:11;;;;;;;23.80;18.90;;;14.90;99.90;;;;;;5074597;28;20510;-70
2022/05/06 00:09:37;;;;;;;22.00;19.60;;;15.10;99.90;;;;;;5073873;28;20438;-70
2022/05/06 00:12:03;;;;;;;23.53;17.77;;;15.10;99.90;;;;;;5055366;28;20844;-70
2022/05/06 00:14:29;;;;;;;21.37;18.90;;;15.20;99.90;;;;;;5073367;28;20494;-69
2022/05/06 00:16:55;;;;;;;24.23;21.73;;;15.00;99.90;;;;;;5073109;28;20487;-69
2022/05/06 00:19:21;;;;;;;25.83;19.40;;;15.10;99.90;;;;;;5073973;28;20173;-69
2022/05/06 00:21:46;;;;;;;20.30;16.87;;;15.10;99.90;;;;;;5073167;28;20185;-69
2022/05/06 00:24:12;;;;;;;23.67;19.90;;;15.20;99.90;;;;;;5055343;28;20411;-69
2022/05/06 00:26:38;;;;;;;23.23;20.40;;;15.30;99.90;;;;;;5077235;28;20264;-69
2022/05/06 00:29:03;;;;;;;20.33;17.27;;;15.10;99.90;;;;;;5077414;28;20169;-69
2022/05/06 00:31:29;;;;;;;24.10;21.00;;;15.10;99.90;;;;;;5076777;28;20210;-69
2022/05/06 00:33:54;;;;;;;26.20;20.53;;;15.10;99.90;;;;;;5077081;28;20541;-69
2022/05/06 00:36:21;;;;;;;22.53;19.80;;;15.20;99.90;;;;;;5077736;28;20478;-70
2022/05/06 00:38:46;;;;;;;28.33;21.63;;;14.90;99.90;;;;;;5077237;28;20202;-70
2022/05/06 00:41:12;;;;;;;21.67;19.33;;;14.80;99.90;;;;;;5077590;28;20788;-70
2022/05/06 00:43:42;;;;;;;24.00;18.93;;;14.70;99.90;;;;;;5077052;28;20164;-69
2022/05/06 00:46:15;;;;;;;20.53;18.57;;;14.80;99.90;;;;;;5076784;28;20169;-69
2022/05/06 00:48:45;;;;;;;22.60;19.63;;;14.90;99.90;;;;;;5076944;28;20383;-69
2022/05/06 00:51:11;;;;;;;22.37;19.00;;;15.10;99.90;;;;;;5058728;28;20426;-69
2022/05/06 00:53:38;;;;;;;24.73;20.70;;;15.00;99.90;;;;;;5077026;28;20441;-70
2022/05/06 00:56:07;;;;;;;21.27;18.70;;;14.90;99.90;;;;;;5076917;28;20417;-70
2022/05/06 00:58:33;;;;;;;25.23;20.27;;;14.80;99.90;;;;;;5077310;28;20413;-69
2022/05/06 01:01:00;;;;;;;22.07;19.30;;;14.80;99.90;;;;;;5076435;28;20421;-69
2022/05/06 01:03:26;;;;;;;25.50;20.60;;;14.80;99.90;;;;;;5076667;28;20175;-69
2022/05/06 01:05:51;;;;;;;24.07;19.03;;;14.90;99.90;;;;;;5076531;28;20760;-69
2022/05/06 01:08:17;;;;;;;21.33;19.13;;;15.20;99.90;;;;;;5076475;28;20172;-69
2022/05/06 01:10:43;;;;;;;24.03;19.43;;;15.20;99.90;;;;;;5076340;28;20196;-69
2022/05/06 01:13:09;;;;;;;25.50;19.80;;;15.20;99.90;;;;;;5076295;28;20195;-69
2022/05/06 01:15:36;;;;;;;25.10;22.37;;;15.10;99.90;;;;;;5076187;28;20498;-69
2022/05/06 01:18:02;;;;;;;23.13;20.63;;;15.10;99.90;;;;;;5076225;28;20402;-69
2022/05/06 01:20:28;;;;;;;22.57;20.07;;;15.10;99.90;;;;;;5076113;28;20217;-69
2022/05/06 01:22:56;;;;;;;22.40;19.33;;;15.10;99.90;;;;;;5058269;28;20413;-69
2022/05/06 01:25:22;;;;;;;22.70;20.40;;;14.90;99.90;;;;;;5076186;28;20652;-69
2022/05/06 01:27:55;;;;;;;22.73;20.43;;;14.80;99.90;;;;;;5076421;28;20422;-69
2022/05/06 01:30:34;;;;;;;25.30;20.50;;;14.60;99.90;;;;;;5075974;28;20440;-70
2022/05/06 01:33:02;;;;;;;21.40;19.20;;;14.50;99.90;;;;;;5075818;28;20457;-69
2022/05/06 01:35:30;;;;;;;22.53;19.07;;;14.60;99.90;;;;;;5074783;28;20406;-68
2022/05/06 01:38:00;;;;;;;25.73;20.87;;;14.70;99.90;;;;;;5075921;28;20412;-68
2022/05/06 01:40:28;;;;;;;22.67;20.17;;;14.70;99.90;;;;;;5057884;28;20431;-68
2022/05/06 01:42:59;;;;;;;23.90;21.23;;;14.70;99.90;;;;;;5076203;28;20510;-68
2022/05/06 01:45:29;;;;;;;27.60;21.40;;;14.70;99.90;;;;;;5057870;28;20765;-69
2022/05/06 01:47:55;;;;;;;21.80;18.50;;;14.40;99.90;;;;;;5075644;28;20439;-69
2022/05/06 01:50:21;;;;;;;23.23;18.00;;;14.60;99.90;;;;;;5075669;28;20466;-69
2022/05/06 01:52:50;;;;;;;24.03;20.97;;;14.70;99.90;;;;;;5075720;28;20546;-69
2022/05/06 01:55:17;;;;;;;23.80;21.00;;;14.80;99.90;;;;;;5075866;28;20780;-69
2022/05/06 01:57:43;;;;;;;22.37;19.40;;;15.00;99.90;;;;;;5075548;28;20450;-70
2022/05/06 02:00:09;;;;;;;24.87;20.07;;;14.90;99.90;;;;;;5057431;28;20521;-69
2022/05/06 02:02:35;;;;;;;22.57;20.17;;;14.80;99.90;;;;;;5075282;28;20177;-68
2022/05/06 02:07:52;;;;;;;21.27;19.07;;;14.70;99.90;;;;;;5075716;28;20177;-68
2022/05/06 02:10:21;;;;;;;25.20;19.97;;;14.70;99.90;;;;;;5057159;28;20826;-69
2022/05/06 02:12:47;;;;;;;23.70;20.67;;;14.70;99.90;;;;;;5075423;28;20483;-69
2022/05/06 02:15:18;;;;;;;20.10;18.07;;;14.70;99.90;;;;;;5075388;28;20878;-69
2022/05/06 02:17:44;;;;;;;22.60;19.70;;;14.80;99.90;;;;;;5075025;28;20407;-70
2022/05/06 02:20:12;;;;;;;23.23;18.53;;;14.90;99.90;;;;;;5072184;28;20803;-69
2022/05/06 02:22:42;;;;;;;24.07;18.87;;;14.80;99.90;;;;;;5075211;28;20413;-69
2022/05/06 02:25:09;;;;;;;20.70;17.83;;;14.90;99.90;;;;;;5075018;28;20419;-69
2022/05/06 02:27:36;;;;;;;20.63;18.10;;;15.10;99.90;;;;;;5075431;28;20436;-69
2022/05/06 02:35:30;;;;;;;19.70;17.60;;;14.80;99.90;;;;;;5047698;28;20402;-73
2022/05/06 02:37:56;;;;;;;23.80;17.93;;;14.90;99.90;;;;;;5034397;28;20403;-73
2022/05/06 02:40:22;;;;;;;20.37;17.87;;;14.80;99.90;;;;;;5034471;28;20550;-73
2022/05/06 02:42:47;;;;;;;19.33;17.00;;;14.60;99.90;;;;;;5033512;28;20687;-73
2022/05/06 02:45:13;;;;;;;21.57;18.13;;;14.40;99.90;;;;;;5034361;28;20168;-73
2022/05/06 02:47:38;;;;;;;19.40;17.23;;;14.50;99.90;;;;;;5033841;28;20165;-73
2022/05/06 02:50:04;;;;;;;20.63;18.63;;;14.60;99.90;;;;;;5034411;28;20197;-73
2022/05/06 02:52:30;;;;;;;19.97;17.13;;;14.80;99.90;;;;;;5034453;28;20517;-74
2022/05/06 02:54:56;;;;;;;20.53;18.33;;;14.70;99.90;;;;;;5034549;28;20403;-73
2022/05/06 02:57:22;;;;;;;24.93;19.40;;;14.70;99.90;;;;;;5034113;28;20167;-73
2022/05/06 02:59:48;;;;;;;21.97;17.40;;;14.60;99.90;;;;;;5034254;28;20175;-74
2022/05/06 03:02:13;;;;;;;20.57;17.53;;;14.60;99.90;;;;;;5037711;28;20438;-74
2022/05/06 03:04:40;;;;;;;19.97;17.00;;;14.50;99.90;;;;;;5054223;28;20220;-73
2022/05/06 03:07:08;;;;;;;19.43;17.10;;;14.40;99.90;;;;;;5054295;28;20163;-73
2022/05/06 03:09:34;;;;;;;20.60;17.00;;;14.40;99.90;;;;;;5053995;28;20836;-74
2022/05/06 03:12:00;;;;;;;19.87;17.83;;;14.50;99.90;;;;;;5054167;28;20428;-73
2022/05/06 03:14:26;;;;;;;17.87;16.07;;;14.40;99.90;;;;;;5036759;28;20457;-74
2022/05/06 03:16:51;;;;;;;20.43;18.23;;;14.40;99.90;;;;;;5053642;28;20180;-74
2022/05/06 03:19:17;;;;;;;20.07;16.90;;;14.20;99.90;;;;;;5053720;28;20780;-73
2022/05/06 03:21:50;;;;;;;24.87;19.90;;;14.30;99.90;;;;;;5053599;28;20194;-74
2022/05/06 03:24:16;;;;;;;20.53;18.33;;;14.20;99.90;;;;;;5053930;28;20213;-74
2022/05/06 03:26:42;;;;;;;22.30;19.27;;;14.20;99.90;;;;;;5053536;28;20536;-74
2022/05/06 03:29:08;;;;;;;18.50;16.60;;;14.40;99.90;;;;;;5053988;28;20863;-73
2022/05/06 03:31:35;;;;;;;19.57;16.63;;;14.50;99.90;;;;;;5053237;28;20527;-74
2022/05/06 03:34:02;;;;;;;17.50;15.77;;;14.50;99.90;;;;;;5053110;28;20459;-73
2022/05/06 03:36:28;;;;;;;20.80;16.43;;;14.50;99.90;;;;;;5053629;28;20888;-73
2022/05/06 03:38:54;;;;;;;19.30;16.70;;;14.50;99.90;;;;;;5053546;28;20413;-73
2022/05/06 03:41:19;;;;;;;19.30;17.20;;;14.20;99.90;;;;;;5053235;28;20197;-74
2022/05/06 03:43:45;;;;;;;26.37;20.17;;;14.20;99.90;;;;;;5053121;28;20302;-74
2022/05/06 03:46:11;;;;;;;17.37;15.67;;;14.40;99.90;;;;;;5052475;28;20256;-73
2022/05/06 03:48:36;;;;;;;25.43;18.00;;;14.50;99.90;;;;;;5052891;28;20178;-73
2022/05/06 03:51:20;;;;;;;21.80;17.10;;;14.60;99.90;;;;;;5053039;28;20270;-74
2022/05/06 03:53:54;;;;;;;17.10;14.90;;;14.60;99.90;;;;;;5053567;28;20243;-73
2022/05/06 03:56:24;;;;;;;18.23;15.77;;;14.40;99.90;;;;;;5034892;28;20524;-72
2022/05/06 03:58:50;;;;;;;17.93;15.13;;;14.50;99.90;;;;;;5014637;28;20418;-74
2022/05/06 04:01:17;;;;;;;17.40;15.60;;;14.50;99.90;;;;;;5043418;28;20949;-74
2022/05/06 04:03:43;;;;;;;16.97;15.27;;;14.60;99.90;;;;;;5052239;28;20496;-75
2022/05/06 04:06:09;;;;;;;18.40;16.20;;;14.80;99.90;;;;;;5034343;28;20897;-74
2022/05/06 04:08:34;;;;;;;18.03;16.30;;;15.00;99.90;;;;;;5052584;28;20195;-72
2022/05/06 04:11:00;;;;;;;18.47;15.10;;;14.80;99.90;;;;;;5052215;28;20677;-73
2022/05/06 04:13:26;;;;;;;17.10;15.30;;;14.90;99.90;;;;;;5052586;28;20694;-73
2022/05/06 04:15:52;;;;;;;17.23;14.20;;;15.00;99.90;;;;;;5052969;28;20408;-74
2022/05/06 04:18:18;;;;;;;17.23;14.87;;;15.00;99.90;;;;;;5052729;28;20407;-73
2022/05/06 04:23:32;;;;;;;20.30;17.77;;;14.60;99.90;;;;;;5052607;28;20452;-71
2022/05/06 04:26:03;;;;;;;19.30;17.30;;;14.60;99.90;;;;;;5048653;28;20792;-73
2022/05/06 04:28:29;;;;;;;16.80;15.00;;;14.20;99.90;;;;;;5053066;28;20476;-73
2022/05/06 04:30:56;;;;;;;17.97;16.10;;;14.30;99.90;;;;;;5048417;28;20523;-73
2022/05/06 04:33:24;;;;;;;18.70;16.87;;;14.50;99.90;;;;;;5052423;28;20509;-73
2022/05/06 04:35:51;;;;;;;19.27;17.23;;;14.70;99.90;;;;;;5033950;28;20478;-73
2022/05/06 04:38:17;;;;;;;18.20;16.30;;;14.60;99.90;;;;;;5032584;28;20407;-73
2022/05/06 04:40:43;;;;;;;17.87;16.07;;;14.40;99.90;;;;;;5032568;28;20411;-72
2022/05/06 04:43:10;;;;;;;18.30;16.40;;;14.10;99.90;;;;;;5014821;28;20960;-73
2022/05/06 04:45:41;;;;;;;20.30;16.40;;;14.30;99.90;;;;;;5032726;28;20528;-73
2022/05/06 04:48:08;;;;;;;18.77;16.47;;;14.30;99.90;;;;;;5032438;28;20421;-72
2022/05/06 04:50:34;;;;;;;17.17;15.37;;;14.10;99.90;;;;;;5032581;28;20500;-73
2022/05/06 04:53:01;;;;;;;18.00;16.30;;;14.20;99.90;;;;;;5032376;28;20487;-73
2022/05/06 04:55:27;;;;;;;15.57;14.17;;;14.00;99.90;;;;;;5032356;28;20413;-73
2022/05/06 04:57:52;;;;;;;17.27;15.53;;;13.80;99.90;;;;;;5032820;28;20449;-73
2022/05/06 05:00:22;;;;;;;19.10;16.90;;;13.90;99.90;;;;;;5032730;28;20410;-73
2022/05/06 05:02:48;;;;;;;19.30;17.20;;;14.00;99.90;;;;;;5032428;28;20196;-73
2022/05/06 05:05:15;;;;;;;17.10;15.30;;;14.10;99.90;;;;;;5032528;28;20406;-73
2022/05/06 05:07:41;;;;;;;21.73;19.50;;;14.00;99.90;;;;;;5032644;28;20451;-73
2022/05/06 05:10:08;;;;;;;19.03;17.03;;;14.00;99.90;;;;;;5034986;28;20954;-72
2022/05/06 05:12:34;;;;;;;20.40;18.43;;;14.20;99.90;;;;;;5035842;28;20460;-75
2022/05/06 05:15:00;;;;;;;17.50;15.70;;;14.30;99.90;;;;;;5036050;28;20893;-74
2022/05/06 05:17:26;;;;;;;19.93;16.50;;;14.30;99.90;;;;;;5036119;28;20401;-74
2022/05/06 05:19:51;;;;;;;18.97;15.67;;;14.00;99.90;;;;;;5036259;28;20170;-74
2022/05/06 05:22:18;;;;;;;17.90;15.80;;;13.90;99.90;;;;;;5036175;28;20258;-74
2022/05/06 05:24:44;;;;;;;17.97;16.23;;;14.10;99.90;;;;;;5035555;28;20179;-74
2022/05/06 05:27:10;;;;;;;15.93;14.27;;;14.20;99.90;;;;;;5044225;28;20442;-74
2022/05/06 05:29:36;;;;;;;18.03;14.23;;;14.30;99.90;;;;;;5039172;28;20445;-74
2022/05/06 05:32:02;;;;;;;17.70;15.80;;;14.30;99.90;;;;;;5035747;28;20499;-74
2022/05/06 05:34:27;;;;;;;15.97;14.47;;;14.40;99.90;;;;;;5038148;28;20663;-75
2022/05/06 05:36:53;;;;;;;18.47;16.57;;;14.10;99.90;;;;;;5053892;28;20422;-75
2022/05/06 05:39:19;;;;;;;17.23;15.40;;;13.90;99.90;;;;;;5052037;28;20205;-74
2022/05/06 05:41:44;;;;;;;18.40;15.47;;;13.80;99.90;;;;;;5044446;28;20203;-75
2022/05/06 05:49:38;;;;;;;17.87;15.93;;;14.00;99.90;;;;;;5035975;28;20402;-75
2022/05/06 05:52:04;;;;;;;16.27;14.60;;;14.00;99.90;;;;;;5035588;28;20438;-74
2022/05/06 05:54:30;;;;;;;17.53;15.20;;;13.90;99.90;;;;;;5035076;28;20289;-75
2022/05/06 05:56:56;;;;;;;17.93;16.10;;;13.70;99.90;;;;;;5035456;28;20440;-74
2022/05/06 05:59:23;;;;;;;18.00;15.77;;;14.00;99.90;;;;;;5017492;28;20171;-74
2022/05/06 06:01:49;;;;;;;17.70;15.80;;;14.20;99.90;;;;;;5035504;28;20721;-75
2022/05/06 06:04:16;;;;;;;18.60;16.70;;;14.20;99.90;;;;;;5017311;28;20415;-74
2022/05/06 06:06:42;;;;;;;21.60;15.93;;;14.10;99.90;;;;;;5042738;28;20424;-75
2022/05/06 06:09:08;;;;;;;18.30;16.30;;;14.20;99.90;;;;;;5054460;28;20408;-74
2022/05/06 06:11:35;;;;;;;17.40;15.70;;;14.10;99.90;;;;;;5055089;28;20429;-75
2022/05/06 06:14:01;;;;;;;16.97;15.20;;;14.00;99.90;;;;;;5054795;28;20969;-74
2022/05/06 06:16:27;;;;;;;17.50;15.80;;;14.00;99.90;;;;;;5037269;28;21035;-73
2022/05/06 06:18:52;;;;;;;17.43;15.73;;;14.00;99.90;;;;;;5037307;28;20489;-75
2022/05/06 06:21:18;;;;;;;16.47;14.60;;;14.10;99.90;;;;;;5054550;28;20162;-75
2022/05/06 06:23:44;;;;;;;15.47;13.93;;;14.00;99.90;;;;;;5055204;28;20240;-74
2022/05/06 06:26:10;;;;;;;15.50;13.90;;;14.00;99.90;;;;;;5054761;28;20172;-74
2022/05/06 06:28:41;;;;;;;17.63;15.93;;;13.90;99.90;;;;;;5054630;28;20482;-74
2022/05/06 06:31:06;;;;;;;16.17;14.20;;;14.20;99.90;;;;;;5036800;28;20181;-75
2022/05/06 06:33:37;;;;;;;24.03;17.23;;;14.30;99.90;;;;;;5054506;28;20460;-74
2022/05/06 06:36:09;;;;;;;17.73;13.87;;;14.20;99.90;;;;;;5054381;28;20165;-74
2022/05/06 06:38:35;;;;;;;13.73;12.43;;;14.00;99.90;;;;;;5054683;28;20804;-75
2022/05/06 06:41:01;;;;;;;16.20;14.20;;;13.90;99.90;;;;;;5054022;28;20441;-74
2022/05/06 06:43:26;;;;;;;17.43;15.67;;;13.90;99.90;;;;;;5054555;28;20458;-72
2022/05/06 06:45:52;;;;;;;15.50;13.53;;;13.90;99.90;;;;;;5054497;28;20184;-71
2022/05/06 06:48:18;;;;;;;15.63;12.60;;;14.00;99.90;;;;;;5054105;28;20166;-73
2022/05/06 06:50:43;;;;;;;16.13;12.60;;;14.00;99.90;;;;;;5054093;28;20400;-73
2022/05/06 06:53:09;;;;;;;15.60;14.00;;;13.80;99.90;;;;;;5053907;28;20195;-73
2022/05/06 06:55:35;;;;;;;13.90;12.57;;;13.90;99.90;;;;;;5053351;28;20175;-73
2022/05/06 06:58:01;;;;;;;22.23;14.60;;;13.80;99.90;;;;;;5054163;28;20534;-73
2022/05/06 07:00:26;;;;;;;19.03;14.83;;;13.80;99.90;;;;;;5054095;28;20162;-74
2022/05/06 07:02:53;;;;;;;12.33;11.13;;;13.80;99.90;;;;;;5053840;28;20197;-74
2022/05/06 07:05:19;;;;;;;16.07;13.03;;;13.90;99.90;;;;;;5054193;28;20257;-74
2022/05/06 07:13:12;;;;;;;13.70;12.40;;;14.00;99.90;;;;;;5053960;28;20998;-73
2022/05/06 07:15:38;;;;;;;15.67;13.13;;;14.00;99.90;;;;;;5035450;28;20420;-73
2022/05/06 07:18:04;;;;;;;13.73;11.63;;;14.10;99.90;;;;;;5054106;28;20163;-73
2022/05/06 07:20:30;;;;;;;12.90;11.60;;;14.00;99.90;;;;;;5053803;28;20557;-73
2022/05/06 07:22:55;;;;;;;16.27;12.53;;;14.00;99.90;;;;;;5053814;28;20429;-74
2022/05/06 07:25:21;;;;;;;13.53;12.23;;;14.10;99.90;;;;;;5053241;28;20176;-73
2022/05/06 07:27:47;;;;;;;16.13;11.03;;;14.10;99.90;;;;;;5053626;28;20206;-73
2022/05/06 07:30:13;;;;;;;12.70;11.43;;;14.20;99.90;;;;;;5053628;28;20246;-74
2022/05/06 07:32:38;;;;;;;13.50;12.20;;;14.00;99.90;;;;;;5052198;28;20207;-73
2022/05/06 07:35:05;;;;;;;13.60;11.77;;;13.90;99.90;;;;;;5053434;28;20827;-73
2022/05/06 07:37:33;;;;;;;13.53;12.23;;;14.00;99.90;;;;;;5053229;28;20267;-73
2022/05/06 07:40:04;;;;;;;15.30;12.37;;;14.10;99.90;;;;;;5053215;28;20981;-73
2022/05/06 07:42:31;;;;;;;13.60;10.50;;;14.10;99.90;;;;;;5053473;28;20422;-74
2022/05/06 07:45:00;;;;;;;13.10;11.73;;;13.90;99.90;;;;;;5053125;28;20435;-73
2022/05/06 07:47:26;;;;;;;14.03;12.63;;;14.20;99.90;;;;;;5053303;28;20582;-74
2022/05/06 07:49:52;;;;;;;11.77;10.67;;;14.30;99.90;;;;;;5053132;28;20510;-73
2022/05/06 07:52:18;;;;;;;12.07;10.83;;;14.30;99.90;;;;;;5052983;28;21070;-73
2022/05/06 07:54:44;;;;;;;12.10;11.00;;;14.40;99.90;;;;;;5052739;28;20249;-73
2022/05/06 07:57:10;;;;;;;10.93;9.90;;;14.60;99.90;;;;;;5053286;28;20436;-73
2022/05/06 07:59:35;;;;;;;11.80;10.43;;;14.60;99.90;;;;;;5053232;28;20176;-73
2022/05/06 08:04:48;;;;;;;11.23;10.13;;;14.40;99.90;;;;;;5053450;28;20205;-73
2022/05/06 08:07:15;;;;;;;11.63;10.43;;;14.30;99.90;;;;;;5052945;28;20504;-73
2022/05/06 08:09:42;;;;;;;10.70;9.57;;;14.50;99.90;;;;;;5052654;28;20914;-74
2022/05/06 08:12:08;;;;;;;12.03;9.60;;;14.70;99.90;;;;;;5052935;28;20432;-73
2022/05/06 08:14:34;;;;;;;11.47;10.27;;;15.00;99.90;;;;;;5052781;28;20543;-73
2022/05/06 08:17:00;;;;;;;9.80;8.90;;;14.80;99.90;;;;;;5053180;28;20434;-73
2022/05/06 08:19:26;;;;;;;11.33;10.20;;;15.00;99.90;;;;;;5053074;28;20413;-73
2022/05/06 08:21:53;;;;;;;10.73;9.67;;;15.00;99.90;;;;;;5052838;28;21004;-74
2022/05/06 08:24:19;;;;;;;10.57;9.53;;;15.20;99.90;;;;;;5052832;28;20928;-74
2022/05/06 08:26:46;;;;;;;11.67;10.40;;;15.30;99.90;;;;;;5053231;28;20820;-74
2022/05/06 08:29:11;;;;;;;13.40;10.20;;;15.50;99.90;;;;;;5052999;28;20411;-73
2022/05/06 08:34:10;;;;;;;10.50;9.40;;;15.90;99.90;;;;;;4929243;28;20233;-68
2022/05/06 08:36:37;;;;;;;10.67;9.77;;;16.10;99.90;;;;;;4933387;29;20465;-68
2022/05/06 08:39:04;;;;;;;11.53;10.43;;;16.10;99.90;;;;;;4933291;29;20909;-69
2022/05/06 08:41:30;;;;;;;10.60;9.60;;;15.60;99.90;;;;;;4933004;29;20409;-68
2022/05/06 08:43:57;;;;;;;10.63;9.63;;;15.90;99.90;;;;;;4933533;29;20425;-67
2022/05/06 08:51:56;;;;;;;16.73;9.90;;;15.30;99.90;;;;;;4936204;29;20913;-68
2022/05/06 08:54:22;;;;;;;10.27;8.23;;;15.40;99.90;;;;;;4936193;29;20977;-69
2022/05/06 08:56:49;;;;;;;11.53;9.77;;;15.30;99.90;;;;;;4936284;29;20426;-68
2022/05/06 08:59:14;;;;;;;9.50;8.37;;;15.10;99.90;;;;;;5035415;28;20416;-67
2022/05/06 09:01:41;;;;;;;11.80;9.00;;;15.50;99.90;;;;;;4936371;29;20414;-68
2022/05/06 09:04:07;;;;;;;9.83;8.93;;;15.30;99.90;;;;;;4936133;28;20186;-68
2022/05/06 09:06:33;;;;;;;10.40;9.43;;;14.80;99.90;;;;;;4936406;29;20826;-69
2022/05/06 09:09:00;;;;;;;11.53;8.97;;;15.10;99.90;;;;;;4936046;29;20492;-69
2022/05/06 09:14:16;;;;;;;13.40;8.60;;;15.20;99.90;;;;;;4936466;29;20502;-69
2022/05/06 09:16:46;;;;;;;9.07;8.17;;;15.70;99.90;;;;;;4934840;29;20422;-69
2022/05/06 09:19:21;;;;;;;11.23;10.10;;;15.60;99.90;;;;;;4935724;29;20815;-69
2022/05/06 09:22:00;;;;;;;9.03;7.37;;;16.00;99.90;;;;;;4936345;29;20404;-68
2022/05/06 09:24:28;;;;;;;11.10;8.63;;;16.10;99.90;;;;;;4936004;29;20500;-67
2022/05/06 09:27:12;;;;;;;10.30;9.30;;;15.90;99.90;;;;;;4936059;29;20778;-68
2022/05/06 09:29:47;;;;;;;8.33;7.50;;;15.90;99.90;;;;;;4935646;29;20403;-67
2022/05/06 09:32:20;;;;;;;9.80;8.80;;;15.70;99.90;;;;;;4940002;29;20510;-69
2022/05/06 09:34:52;;;;;;;9.70;8.80;;;15.80;99.90;;;;;;4954447;29;20516;-68
2022/05/06 09:37:30;;;;;;;9.27;8.47;;;15.50;99.90;;;;;;4955183;29;20540;-68
2022/05/06 09:40:27;;;;;;;9.00;8.10;;;15.50;99.90;;;;;;4954735;29;20488;-69
2022/05/06 09:42:55;;;;;;;10.43;7.87;;;15.90;99.90;;;;;;4954377;28;20449;-67
2022/05/06 09:45:47;;;;;;;8.00;7.17;;;16.10;99.90;;;;;;4954520;29;20413;-68
2022/05/06 09:48:15;;;;;;;10.40;9.17;;;15.80;99.90;;;;;;4953784;28;20447;-69
2022/05/06 09:50:43;;;;;;;9.20;7.93;;;15.90;99.90;;;;;;4954882;29;20444;-70
2022/05/06 09:53:10;;;;;;;11.00;8.97;;;16.10;99.90;;;;;;4954661;28;20869;-68
2022/05/06 09:55:38;;;;;;;10.80;9.40;;;16.60;99.90;;;;;;4953437;29;20408;-68
2022/05/06 09:58:06;;;;;;;9.20;8.40;;;17.10;99.90;;;;;;4954943;29;20405;-69
2022/05/06 10:00:32;;;;;;;9.90;8.50;;;17.00;99.90;;;;;;4955154;29;20402;-68
2022/05/06 10:03:00;;;;;;;8.43;7.63;;;16.70;99.90;;;;;;4951790;28;20441;-68
2022/05/06 10:05:28;;;;;;;9.90;8.90;;;17.20;99.90;;;;;;4934029;28;20776;-68
2022/05/06 10:07:58;;;;;;;8.80;8.00;;;17.40;99.90;;;;;;4935528;29;20406;-69
2022/05/06 10:10:26;;;;;;;11.00;8.67;;;17.70;99.90;;;;;;4935657;29;20399;-68
2022/05/06 10:12:56;;;;;;;9.37;7.93;;;17.60;99.90;;;;;;4935153;29;20455;-68
2022/05/06 10:15:24;;;;;;;9.03;8.10;;;17.80;99.90;;;;;;4935568;29;20461;-68
2022/05/06 10:17:54;;;;;;;9.77;8.47;;;17.70;99.90;;;;;;4935248;29;20411;-68
2022/05/06 10:20:46;;;;;;;9.57;8.40;;;17.60;99.90;;;;;;4934998;28;20410;-68
2022/05/06 10:23:15;;;;;;;8.10;7.30;;;17.50;99.90;;;;;;4935419;29;20438;-69
2022/05/06 10:25:40;;;;;;;9.73;8.87;;;17.90;99.90;;;;;;4935102;29;20422;-68
2022/05/06 10:34:18;;;;;;;9.50;8.53;;;19.20;99.90;;;;;;4934818;29;20896;-69
2022/05/06 10:36:47;;;;;;;9.60;8.70;;;18.70;99.90;;;;;;4935113;29;20410;-70
2022/05/06 10:39:32;;;;;;;9.17;8.37;;;18.50;99.90;;;;;;4936061;29;20402;-69
2022/05/06 10:42:07;;;;;;;9.00;7.90;;;19.10;99.90;;;;;;4935434;29;20426;-69
2022/05/06 10:44:44;;;;;;;7.77;6.97;;;19.70;99.90;;;;;;4935317;29;20480;-68
2022/05/06 10:47:12;;;;;;;8.70;7.90;;;20.40;99.90;;;;;;4935612;29;20482;-69
2022/05/06 10:49:42;;;;;;;9.53;8.60;;;20.60;99.90;;;;;;4934849;29;20411;-70
2022/05/06 10:52:24;;;;;;;13.27;9.50;;;20.60;99.90;;;;;;4934779;29;20488;-69
2022/05/06 10:54:55;;;;;;;9.53;8.63;;;20.60;99.90;;;;;;4934840;29;20433;-70
2022/05/06 10:57:23;;;;;;;7.47;6.70;;;20.80;99.90;;;;;;4934512;29;20375;-69
2022/05/06 11:00:05;;;;;;;8.10;7.40;;;20.10;99.90;;;;;;4934616;29;20488;-69
2022/05/06 11:02:33;;;;;;;8.43;6.90;;;19.80;99.90;;;;;;4934284;29;20517;-68
2022/05/06 11:05:01;;;;;;;9.77;7.70;;;19.80;99.90;;;;;;4934190;29;20978;-69
2022/05/06 11:07:28;;;;;;;7.77;7.17;;;20.10;99.90;;;;;;4934317;29;20900;-69
2022/05/06 11:09:54;;;;;;;11.07;7.00;;;20.70;99.90;;;;;;4934388;29;20406;-68
2022/05/06 11:12:44;;;;;;;7.60;6.90;;;20.90;99.20;;;;;;4934446;29;20518;-69
2022/05/06 11:15:14;;;;;;;7.27;6.00;;;20.40;99.70;;;;;;4934239;29;20189;-68
2022/05/06 11:17:44;;;;;;;7.43;6.70;;;20.20;99.90;;;;;;4932758;28;20446;-70
2022/05/06 11:20:26;;;;;;;7.53;6.37;;;20.00;99.90;;;;;;4934202;29;20407;-68
2022/05/06 11:23:00;;;;;;;6.63;6.03;;;20.20;99.90;;;;;;4934229;29;20430;-68
2022/05/06 11:25:34;;;;;;;7.10;6.50;;;20.60;99.50;;;;;;4933667;28;20414;-70
2022/05/06 11:28:02;;;;;;;6.77;6.10;;;20.30;99.10;;;;;;4934148;29;20429;-70
2022/05/06 11:30:29;;;;;;;9.40;6.73;;;20.80;98.60;;;;;;4934052;29;20406;-69
2022/05/06 11:33:01;;;;;;;8.87;6.00;;;21.70;97.70;;;;;;4934415;29;20529;-68
2022/05/06 11:35:35;;;;;;;7.70;6.00;;;22.30;96.90;;;;;;4933876;29;20403;-70
2022/05/06 11:38:02;;;;;;;11.63;5.50;;;21.90;96.90;;;;;;4933904;29;20736;-68
2022/05/06 11:40:35;;;;;;;7.07;5.37;;;21.50;96.40;;;;;;4934187;29;20402;-69
2022/05/06 11:43:02;;;;;;;7.17;6.47;;;22.20;97.10;;;;;;4933957;29;20449;-69
2022/05/06 11:48:14;;;;;;;6.70;6.10;;;21.60;95.70;;;;;;4934223;29;20394;-69
2022/05/06 11:50:41;;;;;;;8.83;6.10;;;21.60;96.10;;;;;;4932217;29;20526;-69
2022/05/06 11:53:11;;;;;;;6.73;6.03;;;21.30;96.50;;;;;;4933962;29;20549;-69
2022/05/06 11:55:40;;;;;;;8.77;6.60;;;20.90;97.00;;;;;;4946783;28;20497;-69
2022/05/06 11:58:07;;;;;;;7.00;6.30;;;20.40;97.30;;;;;;4934141;29;20801;-69
2022/05/06 12:00:33;;;;;;;7.77;6.00;;;20.40;97.80;;;;;;4933994;29;20446;-70
2022/05/06 12:03:07;;;;;;;7.87;6.07;;;20.20;97.60;;;;;;4933630;29;20441;-69
2022/05/06 12:05:34;;;;;;;8.60;5.80;;;19.70;98.60;;;;;;4933602;29;20826;-69
2022/05/06 12:07:59;;;;;;;9.33;6.30;;;19.50;98.80;;;;;;4934021;29;20467;-68
2022/05/06 12:10:26;;;;;;;7.67;5.80;;;19.70;98.90;;;;;;4933601;29;20414;-69
2022/05/06 12:12:54;;;;;;;7.77;5.80;;;20.30;98.50;;;;;;4933454;29;20232;-72
2022/05/06 12:15:20;;;;;;;7.40;5.80;;;20.10;98.30;;;;;;4933994;29;20913;-69
2022/05/06 12:17:45;;;;;;;6.30;5.70;;;20.10;99.10;;;;;;4933715;29;20426;-69
2022/05/06 12:20:31;;;;;;;7.30;6.30;;;20.40;97.70;;;;;;4932582;29;20407;-68
2022/05/06 12:23:00;;;;;;;10.40;8.40;;;20.40;97.50;;;;;;4933472;29;20194;-69
2022/05/06 12:25:26;;;;;;;10.90;6.60;;;20.40;97.10;;;;;;4933514;29;20414;-69
2022/05/06 12:28:15;;;;;;;7.33;5.77;;;19.90;96.90;;;;;;4933194;29;20490;-68
2022/05/06 12:30:41;;;;;;;9.20;6.57;;;19.50;97.20;;;;;;4933555;29;20388;-69
2022/05/06 12:33:20;;;;;;;7.63;6.73;;;19.70;97.50;;;;;;4944567;29;20492;-69
2022/05/06 12:35:55;;;;;;;7.17;6.50;;;20.00;97.10;;;;;;4952477;28;20519;-69
2022/05/06 12:38:22;;;;;;;7.27;6.20;;;20.20;96.70;;;;;;4952387;29;20496;-69
2022/05/06 12:40:49;;;;;;;8.57;6.93;;;20.30;96.50;;;;;;4952361;29;20398;-69
2022/05/06 12:43:15;;;;;;;8.20;7.40;;;20.60;96.00;;;;;;4952087;28;20492;-69
2022/05/06 12:45:53;;;;;;;8.17;6.30;;;20.50;96.60;;;;;;4951041;29;20418;-70
2022/05/06 12:51:04;;;;;;;10.27;6.20;;;20.60;96.10;;;;;;4952225;29;20476;-69
2022/05/06 12:53:29;;;;;;;7.43;6.73;;;20.60;96.50;;;;;;4951858;28;20484;-69
2022/05/06 12:55:55;;;;;;;7.53;6.27;;;20.40;96.30;;;;;;4952150;28;20174;-69
2022/05/06 12:58:27;;;;;;;8.73;6.27;;;20.30;96.70;;;;;;4951941;29;20430;-68
2022/05/06 13:00:54;;;;;;;6.70;5.83;;;20.50;96.80;;;;;;4951950;28;20147;-69
2022/05/06 13:03:19;;;;;;;9.07;6.37;;;20.40;96.00;;;;;;4951653;28;20472;-69
2022/05/06 13:05:46;;;;;;;6.87;5.97;;;20.90;95.30;;;;;;4951639;29;20446;-70
2022/05/06 13:08:11;;;;;;;10.93;6.40;;;20.90;95.60;;;;;;4952307;29;20182;-69
2022/05/06 13:10:37;;;;;;;6.03;5.30;;;21.70;95.20;;;;;;4951864;29;20729;-69
2022/05/06 13:13:03;;;;;;;7.87;5.50;;;22.00;94.60;;;;;;4951747;28;20557;-69
2022/05/06 13:15:29;;;;;;;6.20;5.67;;;21.80;95.10;;;;;;4951842;29;20416;-69
2022/05/06 13:17:55;;;;;;;6.43;5.60;;;21.10;95.90;;;;;;4950301;28;20170;-69
2022/05/06 13:20:20;;;;;;;8.13;5.87;;;21.30;96.00;;;;;;4951229;29;20249;-68
2022/05/06 13:22:46;;;;;;;6.43;5.70;;;21.20;95.60;;;;;;4951494;28;20193;-69
2022/05/06 13:25:11;;;;;;;8.20;6.40;;;21.00;96.30;;;;;;4951506;29;20170;-68